Climax, Canada
Current Conditions -  °F | °C
As of 4:53 AM on Thursday 23 Oct 2014 (Local Time) from KHVR Reporting Station
Clear Clear  
Wind Chill: 57°   Ceiling: Unl
Heat Index: 57°   Visibility: 10mi
Dew Point: 33°   Wind: 23mph
Humidity: 40%   Direction: 210°SSW
Pressure: 29.73"   Gusts: 29mph
Location:  49.2°N, 108.38°W
Report Text: KHVR 231053Z AUTO 21020G25KT 10SM CLR 14/01 A2973 RMK AO2 PK WND 21029/1004 SLP060 T01390006
Loading
Personal Weather Stations






























Interactive Weather Map
Tropical Storm Tracking
New forecast layout! Learn more

10-Day Weather Forecast

Advertisements
Track Severe Weather on mobile